createdAt,value
2018-08-20T00:02:10.768Z,18.03
2018-08-20T00:04:44.496Z,14.77
2018-08-20T00:07:12.749Z,15.80
2018-08-20T00:09:46.633Z,16.13
2018-08-20T00:12:16.488Z,15.83
2018-08-20T00:14:44.753Z,16.07
2018-08-20T00:17:13.563Z,16.10
2018-08-20T00:19:42.079Z,15.67
2018-08-20T00:22:10.503Z,16.13
2018-08-20T00:24:38.900Z,16.17
2018-08-20T00:27:07.172Z,14.77
2018-08-20T00:29:37.483Z,15.67
2018-08-20T00:32:05.764Z,14.37
2018-08-20T00:34:33.999Z,16.47
2018-08-20T00:37:02.232Z,16.30
2018-08-20T00:39:30.790Z,17.13
2018-08-20T00:41:59.412Z,15.67
2018-08-20T00:44:27.695Z,15.93
2018-08-20T00:46:56.160Z,15.20
2018-08-20T00:49:24.432Z,16.43
2018-08-20T00:51:52.659Z,16.20
2018-08-20T00:54:20.988Z,16.40
2018-08-20T00:56:49.258Z,15.33
2018-08-20T00:59:17.547Z,15.37
2018-08-20T01:01:45.897Z,14.97
2018-08-20T01:04:14.145Z,14.97
2018-08-20T01:06:42.371Z,14.37
2018-08-20T01:09:10.603Z,15.63
2018-08-20T01:11:38.887Z,15.63
2018-08-20T01:14:07.085Z,13.83
2018-08-20T01:16:35.341Z,14.70
2018-08-20T01:19:03.601Z,14.90
2018-08-20T01:21:31.825Z,13.67
2018-08-20T01:24:00.350Z,13.60
2018-08-20T01:26:28.580Z,14.00
2018-08-20T01:28:56.796Z,13.43
2018-08-20T01:31:25.028Z,12.60
2018-08-20T01:33:53.776Z,12.83
2018-08-20T01:36:21.989Z,12.57
2018-08-20T01:38:50.343Z,12.27
2018-08-20T01:41:18.607Z,12.93
2018-08-20T01:43:46.819Z,11.93
2018-08-20T01:46:15.077Z,10.67
2018-08-20T01:48:43.279Z,11.13
2018-08-20T01:51:11.547Z,10.83
2018-08-20T01:53:39.744Z,10.77
2018-08-20T01:56:08.220Z,10.67
2018-08-20T01:58:36.440Z,10.80
2018-08-20T02:01:04.715Z,10.53
2018-08-20T02:03:32.935Z,9.90
2018-08-20T02:06:01.131Z,10.67
2018-08-20T02:08:29.363Z,10.37
2018-08-20T02:10:57.580Z,10.17
2018-08-20T02:13:25.883Z,11.20
2018-08-20T02:15:54.214Z,10.27
2018-08-20T02:18:22.395Z,9.73
2018-08-20T02:20:50.603Z,10.17
2018-08-20T02:23:18.819Z,10.77
2018-08-20T02:25:47.015Z,10.93
2018-08-20T02:28:15.246Z,10.17
2018-08-20T02:30:43.467Z,10.00
2018-08-20T02:33:11.675Z,9.83
2018-08-20T02:35:39.959Z,10.83
2018-08-20T02:38:08.192Z,11.43
2018-08-20T02:40:36.395Z,10.60
2018-08-20T02:43:04.648Z,10.57
2018-08-20T02:45:32.855Z,10.97
2018-08-20T02:48:01.101Z,11.70
2018-08-20T02:50:29.287Z,11.10
2018-08-20T02:52:57.475Z,10.90
2018-08-20T02:55:25.724Z,10.60
2018-08-20T02:57:53.928Z,11.10
2018-08-20T03:00:22.200Z,11.40
2018-08-20T03:02:50.431Z,11.93
2018-08-20T03:05:19.869Z,10.53
2018-08-20T03:07:48.081Z,11.00
2018-08-20T03:10:16.309Z,11.07
2018-08-20T03:12:44.488Z,11.13
2018-08-20T03:15:12.718Z,10.83
2018-08-20T03:17:40.943Z,11.53
2018-08-20T03:20:09.151Z,11.47
2018-08-20T03:22:37.372Z,11.10
2018-08-20T03:25:06.187Z,12.07
2018-08-20T03:27:34.367Z,11.23
2018-08-20T03:30:02.740Z,12.00
2018-08-20T03:32:31.784Z,10.57
2018-08-20T03:34:59.982Z,11.80
2018-08-20T03:37:28.384Z,11.03
2018-08-20T03:39:56.594Z,12.03
2018-08-20T03:42:24.859Z,11.80
2018-08-20T03:44:53.128Z,12.20
2018-08-20T03:47:21.551Z,12.20
2018-08-20T03:49:50.116Z,13.23
2018-08-20T03:52:18.349Z,11.17
2018-08-20T03:54:46.531Z,13.10
2018-08-20T03:57:14.856Z,13.80
2018-08-20T03:59:43.081Z,12.33
2018-08-20T04:02:12.097Z,11.93
2018-08-20T04:04:40.373Z,11.73
2018-08-20T04:07:08.659Z,13.17
2018-08-20T04:09:36.900Z,12.70
2018-08-20T04:12:05.435Z,13.20
2018-08-20T04:14:33.662Z,13.03
2018-08-20T04:17:01.870Z,12.60
2018-08-20T04:19:30.539Z,12.60
2018-08-20T04:21:58.850Z,13.30
2018-08-20T04:24:27.082Z,11.87
2018-08-20T04:26:55.276Z,14.23
2018-08-20T04:29:23.547Z,13.10
2018-08-20T04:31:51.731Z,13.73
2018-08-20T04:34:19.959Z,13.93
2018-08-20T04:36:48.218Z,15.97
2018-08-20T04:39:16.840Z,13.63
2018-08-20T04:41:45.059Z,14.27
2018-08-20T04:44:13.304Z,15.77
2018-08-20T04:46:41.491Z,15.33
2018-08-20T04:49:09.691Z,15.30
2018-08-20T04:51:37.909Z,15.73
2018-08-20T04:54:06.820Z,15.97
2018-08-20T04:56:35.029Z,15.47
2018-08-20T04:59:03.260Z,14.83
2018-08-20T05:01:31.589Z,15.53
2018-08-20T05:03:59.793Z,15.70
2018-08-20T05:06:28.000Z,15.67
2018-08-20T05:08:56.217Z,16.90
2018-08-20T05:11:24.423Z,15.70
2018-08-20T05:13:52.619Z,15.73
2018-08-20T05:16:20.930Z,16.30
2018-08-20T05:18:49.194Z,15.93
2018-08-20T05:21:18.125Z,18.13
2018-08-20T05:23:46.387Z,17.83
2018-08-20T05:26:14.633Z,16.27
2018-08-20T05:28:42.831Z,19.00
2018-08-20T05:31:11.113Z,19.27
2018-08-20T05:33:39.381Z,20.73
2018-08-20T05:36:07.559Z,19.53
2018-08-20T05:38:35.747Z,19.33
2018-08-20T05:41:04.011Z,18.30
2018-08-20T05:43:32.254Z,18.37
2018-08-20T05:46:00.517Z,20.23
2018-08-20T05:48:28.725Z,21.07
2018-08-20T05:50:56.920Z,19.63
2018-08-20T05:53:25.131Z,19.97
2018-08-20T05:55:53.351Z,20.87
2018-08-20T05:58:21.565Z,19.80
2018-08-20T06:00:49.809Z,20.47
2018-08-20T06:03:18.016Z,22.57
2018-08-20T06:05:46.284Z,21.00
2018-08-20T06:08:14.436Z,18.97
2018-08-20T06:10:42.646Z,20.10
2018-08-20T06:13:11.603Z,21.27
2018-08-20T06:15:39.800Z,23.77
2018-08-20T06:18:08.180Z,24.20
2018-08-20T06:20:36.408Z,23.83
2018-08-20T06:23:04.742Z,25.60
2018-08-20T06:25:32.982Z,26.90
2018-08-20T06:28:01.202Z,25.90
2018-08-20T06:30:29.429Z,25.03
2018-08-20T06:32:57.706Z,25.07
2018-08-20T06:35:25.912Z,27.83
2018-08-20T06:37:54.232Z,26.07
2018-08-20T06:40:22.440Z,25.93
2018-08-20T06:42:50.660Z,27.97
2018-08-20T06:45:19.112Z,28.43
2018-08-20T06:47:47.641Z,27.50
2018-08-20T06:50:16.387Z,29.73
2018-08-20T06:52:45.347Z,28.73
2018-08-20T06:55:14.775Z,30.27
2018-08-20T06:57:43.973Z,30.07
2018-08-20T07:00:12.360Z,29.07
2018-08-20T07:02:40.592Z,28.37
2018-08-20T07:05:09.156Z,29.10
2018-08-20T07:07:38.720Z,30.83
2018-08-20T07:10:11.540Z,30.63
2018-08-20T07:12:39.813Z,30.53
2018-08-20T07:15:09.279Z,29.23
2018-08-20T07:17:37.537Z,26.97
2018-08-20T07:20:07.663Z,29.30
2018-08-20T07:22:35.860Z,30.23
2018-08-20T07:25:04.732Z,30.53
2018-08-20T07:27:33.154Z,31.27
2018-08-20T07:30:01.403Z,29.73
2018-08-20T07:32:29.590Z,32.40
2018-08-20T07:34:57.868Z,31.50
2018-08-20T07:37:26.131Z,30.53
2018-08-20T07:39:54.402Z,32.77
2018-08-20T07:42:22.686Z,33.63
2018-08-20T07:44:50.868Z,31.77
2018-08-20T07:47:19.219Z,32.77
2018-08-20T07:49:47.660Z,33.90
2018-08-20T07:52:15.937Z,34.20
2018-08-20T07:54:44.150Z,33.87
2018-08-20T07:57:12.464Z,32.80
2018-08-20T07:59:40.825Z,36.80
2018-08-20T08:02:09.108Z,37.57
2018-08-20T08:04:37.355Z,40.17
2018-08-20T08:07:05.694Z,41.30
2018-08-20T08:09:34.217Z,45.03
2018-08-20T08:12:02.440Z,43.50
2018-08-20T08:14:30.731Z,44.87
2018-08-20T08:16:58.988Z,45.37
2018-08-20T08:19:27.309Z,42.33
2018-08-20T08:21:55.523Z,46.33
2018-08-20T08:24:23.800Z,47.83
2018-08-20T08:26:52.061Z,48.67
2018-08-20T08:29:20.271Z,45.50
2018-08-20T08:31:48.514Z,47.10
2018-08-20T08:34:16.826Z,46.13
2018-08-20T08:36:45.080Z,46.67
2018-08-20T08:39:13.299Z,43.47
2018-08-20T08:41:41.639Z,44.73
2018-08-20T08:44:10.344Z,48.93
2018-08-20T08:46:38.588Z,49.00
2018-08-20T08:49:06.790Z,51.50
2018-08-20T08:51:34.989Z,49.47
2018-08-20T08:54:03.215Z,49.57
2018-08-20T08:56:31.419Z,48.97
2018-08-20T08:58:59.666Z,50.13
2018-08-20T09:01:27.914Z,48.13
2018-08-20T09:03:56.160Z,47.60
2018-08-20T09:06:24.381Z,46.63
2018-08-20T09:08:52.579Z,49.93
2018-08-20T09:11:21.280Z,48.47
2018-08-20T09:13:49.558Z,48.50
2018-08-20T09:16:17.779Z,50.20
2018-08-20T09:18:45.983Z,48.73
2018-08-20T09:21:14.356Z,47.33
2018-08-20T09:23:42.571Z,49.57
2018-08-20T09:26:10.788Z,48.80
2018-08-20T09:28:39.080Z,49.93
2018-08-20T09:31:07.363Z,48.40
2018-08-20T09:33:35.576Z,49.60
2018-08-20T09:36:03.920Z,46.80
2018-08-20T09:38:32.124Z,47.20
2018-08-20T09:41:00.387Z,48.93
2018-08-20T09:43:28.677Z,50.40
2018-08-20T09:45:56.916Z,47.10
2018-08-20T09:48:25.140Z,51.13
2018-08-20T09:50:53.373Z,52.37
2018-08-20T09:53:21.706Z,50.97
2018-08-20T09:55:49.835Z,48.47
2018-08-20T09:58:18.072Z,48.73
2018-08-20T10:00:46.397Z,52.20
2018-08-20T10:03:14.652Z,51.10
2018-08-20T10:05:42.855Z,49.83
2018-08-20T10:08:11.097Z,52.33
2018-08-20T10:10:39.355Z,52.87
2018-08-20T10:13:07.581Z,49.50
2018-08-20T10:15:35.835Z,48.80
2018-08-20T10:18:04.055Z,50.43
2018-08-20T10:20:32.316Z,48.47
2018-08-20T10:23:00.544Z,48.83
2018-08-20T10:25:28.962Z,49.23
2018-08-20T10:27:57.219Z,49.03
2018-08-20T10:30:25.447Z,47.77
2018-08-20T10:32:53.668Z,49.17
2018-08-20T10:35:21.895Z,45.87
2018-08-20T10:37:50.164Z,47.83
2018-08-20T10:40:18.382Z,48.30
2018-08-20T10:42:46.587Z,49.37
2018-08-20T10:45:16.763Z,46.27
2018-08-20T10:47:46.347Z,46.93
2018-08-20T10:50:15.540Z,51.20
2018-08-20T10:52:45.132Z,48.63
2018-08-20T10:55:13.383Z,48.73
2018-08-20T10:57:42.056Z,48.90
2018-08-20T11:00:11.027Z,44.77
2018-08-20T11:02:39.364Z,45.23
2018-08-20T11:05:10.136Z,43.47
2018-08-20T11:07:38.436Z,46.07
2018-08-20T11:10:06.763Z,45.40
2018-08-20T11:12:34.952Z,44.93
2018-08-20T11:15:03.202Z,42.93
2018-08-20T11:17:31.449Z,41.20
2018-08-20T11:19:59.656Z,42.30
2018-08-20T11:22:27.855Z,40.37
2018-08-20T11:24:56.108Z,39.87
2018-08-20T11:27:24.399Z,41.20
2018-08-20T11:29:52.614Z,41.80
2018-08-20T11:32:20.877Z,36.57
2018-08-20T11:34:49.119Z,40.80
2018-08-20T11:37:17.330Z,34.60
2018-08-20T11:39:45.528Z,33.67
2018-08-20T11:42:13.875Z,31.47
2018-08-20T11:44:42.126Z,35.90
2018-08-20T11:47:10.408Z,37.83
2018-08-20T11:49:38.651Z,39.03
2018-08-20T11:52:06.929Z,39.53
2018-08-20T11:54:35.128Z,37.93
2018-08-20T11:57:03.539Z,36.43
2018-08-20T11:59:31.766Z,39.13
2018-08-20T12:02:00.477Z,37.60
2018-08-20T12:04:28.584Z,38.63
2018-08-20T12:06:56.841Z,36.73
2018-08-20T12:09:24.995Z,34.00
2018-08-20T12:11:53.291Z,34.10
2018-08-20T12:14:21.526Z,34.03
2018-08-20T12:16:49.767Z,34.67
2018-08-20T12:19:18.020Z,36.50
2018-08-20T12:21:46.256Z,33.47
2018-08-20T12:24:14.449Z,35.13
2018-08-20T12:26:42.756Z,36.67
2018-08-20T12:29:11.089Z,35.20
2018-08-20T12:31:39.279Z,34.63
2018-08-20T12:34:07.583Z,35.13
2018-08-20T12:36:36.139Z,35.40
2018-08-20T12:39:05.677Z,36.27
2018-08-20T12:41:33.951Z,40.23
2018-08-20T12:44:02.305Z,41.13
2018-08-20T12:46:30.512Z,40.80
2018-08-20T12:48:58.733Z,41.83
2018-08-20T12:51:26.999Z,38.43
2018-08-20T12:53:55.209Z,36.77
2018-08-20T12:56:23.421Z,32.53
2018-08-20T12:58:52.861Z,29.07
2018-08-20T13:01:21.091Z,26.30
2018-08-20T13:03:49.989Z,26.37
2018-08-20T13:06:18.230Z,31.43
2018-08-20T13:08:47.484Z,33.00
2018-08-20T13:11:16.017Z,32.10
2018-08-20T13:13:44.576Z,32.20
2018-08-20T13:16:12.909Z,29.83
2018-08-20T13:18:40.979Z,31.30
2018-08-20T13:21:09.237Z,28.10
2018-08-20T13:23:37.535Z,26.37
2018-08-20T13:26:05.964Z,25.60
2018-08-20T13:28:34.212Z,26.13
2018-08-20T13:31:02.865Z,25.23
2018-08-20T13:33:31.172Z,22.40
2018-08-20T13:35:59.420Z,23.90
2018-08-20T13:38:27.790Z,18.60
2018-08-20T13:40:55.975Z,22.30
2018-08-20T13:43:24.354Z,23.70
2018-08-20T13:45:52.559Z,21.57
2018-08-20T13:48:20.853Z,21.90
2018-08-20T13:50:49.084Z,20.57
2018-08-20T13:53:17.316Z,22.07
2018-08-20T13:55:45.735Z,21.73
2018-08-20T13:58:14.077Z,22.73
2018-08-20T14:00:42.381Z,20.73
2018-08-20T14:03:10.596Z,22.30
2018-08-20T14:05:38.799Z,23.27
2018-08-20T14:08:07.242Z,20.00
2018-08-20T14:10:35.712Z,19.33
2018-08-20T14:13:04.318Z,13.77
2018-08-20T14:15:32.687Z,13.87
2018-08-20T14:18:00.986Z,13.03
2018-08-20T14:20:29.260Z,12.50
2018-08-20T14:22:57.488Z,11.40
2018-08-20T14:25:25.736Z,10.53
2018-08-20T14:27:53.984Z,11.43
2018-08-20T14:30:22.355Z,11.33
2018-08-20T14:32:50.694Z,10.53
2018-08-20T14:35:19.302Z,11.27
2018-08-20T14:37:47.581Z,11.23
2018-08-20T14:40:18.411Z,12.13
2018-08-20T14:42:46.680Z,11.60
2018-08-20T14:45:16.019Z,10.63
2018-08-20T14:47:44.944Z,10.63
2018-08-20T14:50:15.183Z,9.83
2018-08-20T14:52:43.493Z,9.50
2018-08-20T14:55:12.185Z,9.97
2018-08-20T14:57:40.410Z,9.47
2018-08-20T15:00:11.189Z,9.03
2018-08-20T15:02:39.463Z,9.43
2018-08-20T15:05:07.863Z,8.77
2018-08-20T15:07:36.400Z,8.70
2018-08-20T15:10:05.727Z,9.13
2018-08-20T15:12:33.983Z,9.13
2018-08-20T15:15:02.270Z,7.97
2018-08-20T15:17:30.464Z,8.80
2018-08-20T15:19:58.721Z,8.07
2018-08-20T15:22:26.948Z,8.50
2018-08-20T15:24:55.295Z,7.10
2018-08-20T15:27:23.566Z,7.50
2018-08-20T15:29:51.972Z,7.47
2018-08-20T15:32:20.286Z,7.47
2018-08-20T15:34:48.489Z,6.30
2018-08-20T15:37:16.750Z,5.13
2018-08-20T15:39:44.961Z,7.20
2018-08-20T15:42:13.204Z,7.10
2018-08-20T15:44:41.474Z,7.50
2018-08-20T15:47:09.696Z,7.27
2018-08-20T15:49:37.935Z,7.33
2018-08-20T15:52:06.141Z,6.40
2018-08-20T15:54:34.677Z,7.50
2018-08-20T15:57:03.023Z,5.83
2018-08-20T15:59:31.268Z,6.10
2018-08-20T16:01:59.508Z,6.00
2018-08-20T16:04:27.755Z,6.60
2018-08-20T16:06:56.006Z,5.83
2018-08-20T16:09:24.239Z,5.93
2018-08-20T16:11:52.588Z,5.03
2018-08-20T16:14:20.803Z,5.67
2018-08-20T16:16:49.112Z,5.40
2018-08-20T16:19:17.420Z,5.50
2018-08-20T16:21:45.717Z,5.30
2018-08-20T16:24:13.916Z,5.00
2018-08-20T16:26:42.430Z,4.57
2018-08-20T16:29:10.679Z,4.83
2018-08-20T16:31:38.929Z,4.40
2018-08-20T16:34:07.155Z,4.60
2018-08-20T16:36:35.484Z,4.40
2018-08-20T16:39:05.171Z,4.50
2018-08-20T16:41:33.416Z,4.10
2018-08-20T16:44:01.775Z,4.10
2018-08-20T16:46:29.950Z,4.33
2018-08-20T16:48:58.238Z,3.83
2018-08-20T16:51:26.465Z,3.80
2018-08-20T16:53:54.719Z,3.83
2018-08-20T16:56:22.979Z,4.43
2018-08-20T16:58:51.228Z,4.10
2018-08-20T17:01:19.817Z,4.27
2018-08-20T17:03:48.071Z,3.40
2018-08-20T17:06:16.307Z,3.50
2018-08-20T17:08:45.057Z,3.90
2018-08-20T17:11:14.045Z,3.00
2018-08-20T17:13:42.419Z,2.70
2018-08-20T17:16:13.584Z,2.40
2018-08-20T17:18:41.964Z,2.80
2018-08-20T17:21:10.287Z,2.40
2018-08-20T17:23:38.508Z,2.10
2018-08-20T17:26:07.374Z,3.03
2018-08-20T17:28:35.654Z,2.50
2018-08-20T17:31:07.643Z,2.40
2018-08-20T17:33:36.356Z,2.60
2018-08-20T17:36:07.370Z,2.60
2018-08-20T17:38:35.586Z,2.40
2018-08-20T17:41:03.803Z,2.30
2018-08-20T17:43:32.088Z,2.10
2018-08-20T17:46:00.288Z,1.93
2018-08-20T17:48:31.523Z,1.90
2018-08-20T17:51:00.015Z,2.10
2018-08-20T17:53:39.736Z,2.00
2018-08-20T17:56:08.028Z,1.97
2018-08-20T17:58:36.280Z,1.90
2018-08-20T18:01:04.810Z,1.80
2018-08-20T18:03:33.583Z,1.90
2018-08-20T18:06:03.900Z,1.80
2018-08-20T18:08:33.044Z,1.90
2018-08-20T18:11:01.654Z,1.40
2018-08-20T18:13:49.671Z,1.77
2018-08-20T18:16:19.255Z,1.50
2018-08-20T18:18:48.735Z,1.40
2018-08-20T18:21:17.092Z,1.53
2018-08-20T18:23:45.283Z,1.90
2018-08-20T18:26:13.501Z,1.77
2018-08-20T18:28:47.109Z,1.73
2018-08-20T18:31:17.592Z,1.60
2018-08-20T18:33:45.844Z,1.80
2018-08-20T18:36:14.916Z,1.50
2018-08-20T18:38:53.274Z,1.40
2018-08-20T18:41:25.768Z,2.07
2018-08-20T18:43:53.970Z,1.60
2018-08-20T18:46:22.148Z,1.77
2018-08-20T18:48:50.336Z,1.60
2018-08-20T18:51:18.833Z,1.67
2018-08-20T18:53:47.045Z,1.90
2018-08-20T18:56:17.108Z,1.93
2018-08-20T18:58:45.524Z,1.97
2018-08-20T19:01:13.814Z,1.67
2018-08-20T19:03:48.358Z,1.67
2018-08-20T19:06:17.200Z,1.73
2018-08-20T19:08:45.453Z,1.60
2018-08-20T19:11:14.027Z,1.47
2018-08-20T19:13:43.001Z,1.83
2018-08-20T19:16:35.983Z,1.50
2018-08-20T19:19:04.858Z,1.70
2018-08-20T19:21:37.584Z,1.60
2018-08-20T19:24:06.732Z,1.70
2018-08-20T19:26:34.944Z,1.60
2018-08-20T19:29:18.178Z,1.70
2018-08-20T19:31:46.376Z,1.27
2018-08-20T19:34:14.668Z,1.50
2018-08-20T19:36:42.878Z,1.90
2018-08-20T19:39:11.081Z,1.77
2018-08-20T19:41:39.283Z,1.63
2018-08-20T19:44:08.419Z,1.50
2018-08-20T19:46:37.483Z,1.50
2018-08-20T19:49:14.088Z,1.57
2018-08-20T19:51:43.396Z,1.33
2018-08-20T19:54:13.780Z,1.50
2018-08-20T19:56:42.029Z,1.90
2018-08-20T19:59:10.752Z,1.50
2018-08-20T20:01:39.071Z,1.57
2018-08-20T20:04:07.982Z,1.40
2018-08-20T20:06:36.227Z,1.30
2018-08-20T20:09:07.691Z,1.10
2018-08-20T20:11:41.148Z,1.03
2018-08-20T20:14:09.395Z,1.50
2018-08-20T20:16:43.040Z,1.30
2018-08-20T20:19:11.713Z,1.10
2018-08-20T20:21:39.986Z,1.20
2018-08-20T20:24:08.899Z,1.10
2018-08-20T20:26:37.127Z,1.00
2018-08-20T20:29:06.740Z,0.93
2018-08-20T20:31:34.934Z,1.50
2018-08-20T20:34:03.190Z,1.20
2018-08-20T20:36:32.303Z,1.23
2018-08-20T20:39:00.816Z,1.03
2018-08-20T20:41:29.098Z,1.30
2018-08-20T20:43:57.323Z,1.60
2018-08-20T20:46:25.518Z,1.10
2018-08-20T20:48:54.020Z,1.20
2018-08-20T20:51:22.260Z,1.10
2018-08-20T20:53:50.487Z,0.83
2018-08-20T20:56:18.768Z,1.10
2018-08-20T20:58:46.992Z,0.93
2018-08-20T21:01:15.386Z,1.17
2018-08-20T21:03:43.533Z,1.30
2018-08-20T21:06:11.775Z,1.20
2018-08-20T21:08:44.210Z,1.00
2018-08-20T21:11:13.619Z,1.20
2018-08-20T21:13:42.377Z,1.20
2018-08-20T21:16:11.819Z,1.30
2018-08-20T21:18:48.323Z,1.40
2018-08-20T21:21:17.827Z,1.20
2018-08-20T21:23:46.069Z,1.30
2018-08-20T21:26:14.355Z,1.70
2018-08-20T21:28:46.747Z,1.20
2018-08-20T21:31:16.095Z,1.30
2018-08-20T21:33:44.919Z,1.30
2018-08-20T21:36:13.697Z,1.30
2018-08-20T21:38:42.187Z,1.30
2018-08-20T21:41:10.397Z,1.50
2018-08-20T21:43:45.440Z,1.13
2018-08-20T21:46:13.815Z,1.10
2018-08-20T21:48:42.460Z,1.50
2018-08-20T21:51:14.029Z,1.20
2018-08-20T21:53:42.232Z,1.47
2018-08-20T21:56:11.487Z,1.70
2018-08-20T21:58:41.791Z,1.50
2018-08-20T22:01:11.562Z,1.17
2018-08-20T22:03:40.332Z,1.53
2018-08-20T22:06:08.959Z,1.40
2018-08-20T22:08:37.291Z,1.30
2018-08-20T22:11:05.598Z,1.33
2018-08-20T22:13:33.911Z,1.23
2018-08-20T22:16:19.104Z,1.40
2018-08-20T22:18:51.759Z,1.70
2018-08-20T22:21:19.985Z,1.77
2018-08-20T22:23:48.235Z,1.40
2018-08-20T22:26:17.963Z,1.60
2018-08-20T22:28:48.696Z,1.77
2018-08-20T22:31:17.060Z,1.50
2018-08-20T22:33:54.872Z,1.40
2018-08-20T22:36:23.228Z,1.50
2018-08-20T22:38:52.756Z,1.73
2018-08-20T22:41:22.047Z,1.83
2018-08-20T22:43:50.670Z,1.97
2018-08-20T22:46:19.726Z,1.80
2018-08-20T22:48:50.261Z,1.90
2018-08-20T22:51:19.055Z,1.83
2018-08-20T22:53:51.525Z,1.90
2018-08-20T22:56:35.476Z,1.50
2018-08-20T22:59:05.291Z,1.60
2018-08-20T23:01:33.479Z,1.80
2018-08-20T23:04:01.697Z,1.93
2018-08-20T23:06:30.155Z,1.83
2018-08-20T23:08:58.397Z,1.90
2018-08-20T23:11:39.270Z,2.07
2018-08-20T23:14:09.089Z,1.90
2018-08-20T23:16:37.769Z,1.90
2018-08-20T23:19:06.035Z,1.77
2018-08-20T23:21:38.521Z,1.97
2018-08-20T23:24:07.096Z,1.57
2018-08-20T23:26:35.333Z,1.57
2018-08-20T23:29:04.525Z,2.20
2018-08-20T23:31:32.731Z,1.97
2018-08-20T23:34:01.008Z,1.90
2018-08-20T23:36:29.384Z,1.97
2018-08-20T23:38:57.624Z,1.90
2018-08-20T23:41:25.836Z,1.97
2018-08-20T23:43:58.969Z,1.90
2018-08-20T23:46:36.240Z,2.10
2018-08-20T23:49:05.714Z,2.60
2018-08-20T23:51:34.013Z,2.27
2018-08-20T23:54:02.359Z,2.57
2018-08-20T23:56:30.617Z,2.60
2018-08-20T23:58:59.329Z,2.27
